Hanjin Buchanan — 3FHB4 — position and weather

sailwx.info

Track history (hours):
 
Tides and Currents Weather Stations Pressure Air Temp Water Temp Dewpoint Dewpoint Depression Visibility Wind Speed Wind Dir Waves Ship Positions

Hanjin Buchanan

Last reported at 2015-Jun-07 00:18 UTC. Time now 2015-Aug-31 15:14 UTC.
Position N 36°07' E 014°54'.
Warning: this ship's position is months out of date.

Length 255 m; draft 14.1 m.

Type: Ship (hazmat cat D). MMSI: 357568000.

Date/timePositionNaut miles runAvg speedWind from/ knotsBaromVisibWave heightAir tempDewpointWater temp
2015-Jun-07 00:18N 36°07' E 014°54'911.9
2015-Jun-06 23:33N 36°11' E 014°44'1211.6
2015-Jun-06 22:33N 36°14' E 014°30'1111.6
2015-Jun-06 21:33N 36°19' E 014°17'1212.0
2015-Jun-06 20:33N 36°23' E 014°03'1212.0
2015-Jun-06 19:33N 36°27' E 013°49'1211.8
2015-Jun-06 18:33N 36°31' E 013°35'1211.9
2015-Jun-06 17:33N 36°35' E 013°21'1212.1
2015-Jun-06 16:33N 36°39' E 013°07'1211.8
2015-Jun-06 15:33N 36°44' E 012°53'1211.8
2015-Jun-06 14:33N 36°48' E 012°40'7111.8
2015-Jun-06 08:30N 37°18' E 011°19'6311.8
2015-Jun-06 03:08N 37°34' E 010°02'5512.1
2015-Jun-05 22:33N 37°37' E 008°52'1211.4
2015-Jun-05 21:32N 37°38' E 008°37'1111.2
2015-Jun-05 20:32N 37°37' E 008°23'1111.1
2015-Jun-05 19:33N 37°36' E 008°10'1211.6
2015-Jun-05 18:33N 37°34' E 007°55'1111.4
2015-Jun-05 17:33N 37°33' E 007°41'1211.6
2015-Jun-05 16:33N 37°32' E 007°26'1211.5
2015-Jun-05 15:30N 37°30' E 007°11'1111.6
2015-Jun-05 14:32N 37°29' E 006°57'20611.3
2015-Jun-04 20:24N 37°03' E 002°41'1011.5
2015-Jun-04 19:33N 37°01' E 002°29'14612.0
2015-Jun-04 07:20N 36°33' W 000°30'911.3
2015-Jun-04 06:33N 36°31' W 000°41'3410.9
2015-Jun-04 03:25N 36°25' W 001°23'5310.6
2015-Jun-03 22:25N 36°16' W 002°28'1110.7
2015-Jun-03 21:25N 36°15' W 002°42'910.8
2015-Jun-03 20:33N 36°14' W 002°53'1211.5
2015-Jun-03 19:32N 36°12' W 003°07'303 8.4
2015-Jun-02 07:33N 35°59' W 009°23'  
2015-May-30 03:29N 39°43' W 027°38'1312.0
2015-May-30 02:22N 39°46' W 027°55'911.7
2015-May-30 01:33N 39°47' W 028°07'1211.9
2015-May-30 00:33N 39°50' W 028°22'1211.8
2015-May-29 23:34N 39°52' W 028°37'1211.9
2015-May-29 22:33N 39°55' W 028°53'1212.0
2015-May-29 21:33N 39°57' W 029°08'2411.8
2015-May-29 19:33N 40°02' W 029°38'  
Track history (hours):
 
Tides and Currents Weather Stations Pressure Air Temp Water Temp Dewpoint Dewpoint Depression Visibility Wind Speed Wind Dir Waves Ship Positions

Hanjin Buchanan

Last reported at 2015-Jun-07 00:18 UTC. Time now 2015-Aug-31 15:14 UTC.
Position N 36°07' E 014°54'.
Warning: this ship's position is months out of date.

Length 255 m; draft 14.1 m.

Type: Ship (hazmat cat D). MMSI: 357568000.

Date/timePositionNaut miles runAvg speedWind from/ knotsBaromVisibWave heightAir tempDewpointWater temp
2015-Jun-07 00:18N 36°07' E 014°54'911.9
2015-Jun-06 23:33N 36°11' E 014°44'1211.6
2015-Jun-06 22:33N 36°14' E 014°30'1111.6
2015-Jun-06 21:33N 36°19' E 014°17'1212.0
2015-Jun-06 20:33N 36°23' E 014°03'1212.0
2015-Jun-06 19:33N 36°27' E 013°49'1211.8
2015-Jun-06 18:33N 36°31' E 013°35'1211.9
2015-Jun-06 17:33N 36°35' E 013°21'1212.1
2015-Jun-06 16:33N 36°39' E 013°07'1211.8
2015-Jun-06 15:33N 36°44' E 012°53'1211.8
2015-Jun-06 14:33N 36°48' E 012°40'7111.8
2015-Jun-06 08:30N 37°18' E 011°19'6311.8
2015-Jun-06 03:08N 37°34' E 010°02'5512.1
2015-Jun-05 22:33N 37°37' E 008°52'1211.4
2015-Jun-05 21:32N 37°38' E 008°37'1111.2
2015-Jun-05 20:32N 37°37' E 008°23'1111.1
2015-Jun-05 19:33N 37°36' E 008°10'1211.6
2015-Jun-05 18:33N 37°34' E 007°55'1111.4
2015-Jun-05 17:33N 37°33' E 007°41'1211.6
2015-Jun-05 16:33N 37°32' E 007°26'1211.5
2015-Jun-05 15:30N 37°30' E 007°11'1111.6
2015-Jun-05 14:32N 37°29' E 006°57'20611.3
2015-Jun-04 20:24N 37°03' E 002°41'1011.5
2015-Jun-04 19:33N 37°01' E 002°29'14612.0
2015-Jun-04 07:20N 36°33' W 000°30'911.3
2015-Jun-04 06:33N 36°31' W 000°41'3410.9
2015-Jun-04 03:25N 36°25' W 001°23'5310.6
2015-Jun-03 22:25N 36°16' W 002°28'1110.7
2015-Jun-03 21:25N 36°15' W 002°42'910.8
2015-Jun-03 20:33N 36°14' W 002°53'1211.5
2015-Jun-03 19:32N 36°12' W 003°07'303 8.4
2015-Jun-02 07:33N 35°59' W 009°23'  
2015-May-30 03:29N 39°43' W 027°38'1312.0
2015-May-30 02:22N 39°46' W 027°55'911.7
2015-May-30 01:33N 39°47' W 028°07'1211.9
2015-May-30 00:33N 39°50' W 028°22'1211.8
2015-May-29 23:34N 39°52' W 028°37'1211.9
2015-May-29 22:33N 39°55' W 028°53'1212.0
2015-May-29 21:33N 39°57' W 029°08'2411.8
2015-May-29 19:33N 40°02' W 029°38'  

Dump ship's entire track history